Time;durP1;ratioP1;P1;durP2;ratioP2;P2;SDS_P1;SDS_P2;PMS_P1;PMS_P2;Temp;Humidity;BMP_temperature;BMP_pressure;BME280_temperature;BME280_humidity;BME280_pressure;Samples;Min_cycle;Max_cycle;Signal;HPM_P1;HPM_P2
2022/08/15 00:01:06;;;;;;;6.07;5.07;;;22.90;95.10;;;;;;4978905;28;20183;-86
2022/08/15 00:03:39;;;;;;;7.70;5.00;;;23.00;95.20;;;;;;4980344;28;20210;-86
2022/08/15 00:06:10;;;;;;;6.70;5.20;;;23.00;94.90;;;;;;4980466;28;20183;-86
2022/08/15 00:08:39;;;;;;;6.60;5.30;;;23.00;94.90;;;;;;4980253;28;20188;-84
2022/08/15 00:11:10;;;;;;;7.43;4.65;;;23.00;94.90;;;;;;4986229;28;20693;-86
2022/08/15 00:13:38;;;;;;;8.75;5.22;;;23.00;95.00;;;;;;4998075;28;20207;-83
2022/08/15 00:16:05;;;;;;;5.68;5.00;;;23.00;94.60;;;;;;4997830;28;20184;-88
2022/08/15 00:18:31;;;;;;;8.55;5.60;;;23.00;95.40;;;;;;4996919;28;20175;-94
2022/08/15 00:20:57;;;;;;;6.95;5.82;;;22.90;95.40;;;;;;5003859;28;20183;-90
2022/08/15 00:23:26;;;;;;;6.35;5.10;;;22.90;95.50;;;;;;4999393;28;20204;-93
2022/08/15 00:25:57;;;;;;;7.65;5.35;;;22.90;95.70;;;;;;4983111;28;20188;-90
2022/08/15 00:28:25;;;;;;;7.13;5.60;;;22.80;95.90;;;;;;5004756;28;20181;-91
2022/08/15 00:30:51;;;;;;;6.78;5.57;;;22.70;95.90;;;;;;4997832;28;20180;-82
2022/08/15 00:33:17;;;;;;;7.32;5.38;;;22.70;95.90;;;;;;5010657;28;20622;-93
2022/08/15 00:35:44;;;;;;;6.10;5.47;;;22.70;96.00;;;;;;5017331;28;20238;-85
2022/08/15 00:38:13;;;;;;;5.72;5.10;;;22.70;96.40;;;;;;4980205;28;20188;-83
2022/08/15 00:43:34;;;;;;;5.38;4.88;;;22.60;96.10;;;;;;4960110;28;20219;-85
2022/08/15 00:46:05;;;;;;;5.15;4.63;;;22.60;96.10;;;;;;4979812;28;20180;-85
2022/08/15 00:48:43;;;;;;;6.75;4.85;;;22.60;96.20;;;;;;4979880;28;20188;-83
2022/08/15 00:51:21;;;;;;;6.10;4.55;;;22.50;95.90;;;;;;4997103;28;20207;-84
2022/08/15 00:53:55;;;;;;;6.00;4.68;;;22.60;95.90;;;;;;4996248;28;20220;-93
2022/08/15 00:56:26;;;;;;;5.05;4.63;;;22.50;96.00;;;;;;5008036;28;20582;-85
2022/08/15 00:58:52;;;;;;;6.05;4.63;;;22.50;96.00;;;;;;4996790;28;20172;-90
2022/08/15 01:01:18;;;;;;;8.10;4.70;;;22.50;96.20;;;;;;5006941;28;20559;-86
2022/08/15 01:03:47;;;;;;;6.72;4.57;;;22.50;96.40;;;;;;5011182;28;20202;-85
2022/08/15 01:06:14;;;;;;;4.68;4.13;;;22.50;96.30;;;;;;4988242;28;20179;-87
2022/08/15 01:08:43;;;;;;;5.25;4.60;;;22.40;96.30;;;;;;5000658;28;20243;-87
2022/08/15 01:11:15;;;;;;;6.97;4.70;;;22.40;96.20;;;;;;4985680;28;20278;-87
2022/08/15 01:13:42;;;;;;;6.38;4.70;;;22.40;95.60;;;;;;5009285;28;20167;-84
2022/08/15 01:16:08;;;;;;;8.07;4.88;;;22.40;95.90;;;;;;4996949;28;20184;-82
2022/08/15 01:18:35;;;;;;;5.97;4.28;;;22.30;95.90;;;;;;5002493;28;20191;-84
2022/08/15 01:21:12;;;;;;;5.28;4.65;;;22.30;96.20;;;;;;5005254;28;20226;-84
2022/08/15 01:23:56;;;;;;;6.72;4.97;;;22.20;96.10;;;;;;4988772;28;20202;-86
2022/08/15 01:26:23;;;;;;;8.07;5.13;;;22.20;96.00;;;;;;4991730;28;20237;-86
2022/08/15 01:28:53;;;;;;;6.00;4.82;;;22.20;96.00;;;;;;4996918;28;20195;-82
2022/08/15 01:31:20;;;;;;;6.10;4.65;;;22.10;96.20;;;;;;4979458;28;20311;-87
2022/08/15 01:33:50;;;;;;;5.10;4.60;;;22.00;96.10;;;;;;5004742;28;20187;-92
2022/08/15 01:36:16;;;;;;;6.88;4.72;;;22.10;96.40;;;;;;4983140;28;20179;-90
2022/08/15 01:38:56;;;;;;;5.43;4.57;;;22.00;96.10;;;;;;4992260;28;20183;-89
2022/08/15 01:41:35;;;;;;;5.20;4.70;;;22.00;96.40;;;;;;5013124;28;20261;-84
2022/08/15 01:44:28;;;;;;;4.72;4.32;;;22.00;96.50;;;;;;4997172;28;20203;-85
2022/08/15 01:47:03;;;;;;;5.70;4.70;;;21.90;96.40;;;;;;5011135;28;20745;-83
2022/08/15 01:49:35;;;;;;;5.55;4.35;;;21.80;96.40;;;;;;4985172;28;20206;-81
2022/08/15 01:52:03;;;;;;;8.00;4.80;;;21.90;96.60;;;;;;4980616;28;20179;-82
2022/08/15 01:54:36;;;;;;;6.43;4.85;;;21.80;96.80;;;;;;5002173;28;20223;-86
2022/08/15 01:57:04;;;;;;;5.15;4.72;;;21.70;96.60;;;;;;4995966;28;20176;-92
2022/08/15 01:59:30;;;;;;;6.85;4.70;;;21.60;96.80;;;;;;4995730;28;20176;-82
2022/08/15 02:02:06;;;;;;;5.25;4.45;;;21.60;96.70;;;;;;4978148;28;20187;-82
2022/08/15 02:04:36;;;;;;;6.40;4.75;;;21.60;96.80;;;;;;4986451;28;20214;-87
2022/08/15 02:07:25;;;;;;;6.00;4.85;;;21.60;97.10;;;;;;4987127;28;20528;-91
2022/08/15 02:09:52;;;;;;;6.95;4.90;;;21.50;97.10;;;;;;5008928;28;20175;-88
2022/08/15 02:12:23;;;;;;;7.15;4.47;;;21.50;97.50;;;;;;4986458;28;20180;-84
2022/08/15 02:14:48;;;;;;;4.57;3.92;;;21.50;97.30;;;;;;4996676;28;20269;-84
2022/08/15 02:17:16;;;;;;;7.57;4.80;;;21.50;97.20;;;;;;4986433;28;20556;-85
2022/08/15 02:19:44;;;;;;;6.05;4.70;;;21.40;97.20;;;;;;4977294;28;20268;-90
2022/08/15 02:22:10;;;;;;;5.57;4.47;;;21.30;97.50;;;;;;4977987;28;20180;-83
2022/08/15 02:24:37;;;;;;;7.97;4.65;;;21.30;97.50;;;;;;4977176;28;20536;-83
2022/08/15 02:27:04;;;;;;;5.80;4.70;;;21.20;97.50;;;;;;4978017;28;20644;-84
2022/08/15 02:29:30;;;;;;;5.60;4.72;;;21.20;97.50;;;;;;5010512;28;20183;-83
2022/08/15 02:32:00;;;;;;;6.95;4.60;;;21.20;98.00;;;;;;4986632;28;20633;-83
2022/08/15 02:37:04;;;;;;;5.18;4.68;;;21.20;97.70;;;;;;5157004;23;20856;-88
2022/08/15 02:39:30;;;;;;;9.95;4.97;;;21.20;97.70;;;;;;4988647;28;20192;-88
2022/08/15 02:41:56;;;;;;;5.45;4.95;;;21.10;97.80;;;;;;4990165;28;20190;-87
2022/08/15 02:44:22;;;;;;;5.68;4.75;;;21.10;97.70;;;;;;4991139;28;20220;-89
2022/08/15 02:46:53;;;;;;;8.13;5.25;;;21.10;98.00;;;;;;4989376;28;20202;-88
2022/08/15 02:49:22;;;;;;;6.03;5.35;;;21.00;97.80;;;;;;4998436;28;20629;-88
2022/08/15 02:51:49;;;;;;;7.22;5.28;;;21.00;98.10;;;;;;5004353;28;20207;-90
2022/08/15 02:54:17;;;;;;;6.70;5.25;;;21.00;98.10;;;;;;5007146;28;20184;-87
2022/08/15 02:56:44;;;;;;;5.95;5.35;;;20.90;98.10;;;;;;4981823;28;20186;-89
2022/08/15 02:59:10;;;;;;;7.60;5.85;;;20.90;98.10;;;;;;4990094;28;20326;-86
2022/08/15 03:01:38;;;;;;;9.48;5.55;;;21.00;98.20;;;;;;4998064;28;20186;-88
2022/08/15 03:04:09;;;;;;;7.32;5.65;;;20.80;98.30;;;;;;4993653;28;20243;-88
2022/08/15 03:06:36;;;;;;;7.38;5.65;;;20.80;98.50;;;;;;4994377;28;20567;-92
2022/08/15 03:09:07;;;;;;;8.88;6.13;;;20.70;98.70;;;;;;4997877;28;20688;-89
2022/08/15 03:11:38;;;;;;;6.43;5.65;;;20.60;98.90;;;;;;5015092;28;20175;-88
2022/08/15 03:14:07;;;;;;;8.65;5.88;;;20.70;98.90;;;;;;4998241;28;20591;-94
2022/08/15 03:16:42;;;;;;;7.03;6.28;;;20.70;99.10;;;;;;4998105;28;20187;-90
2022/08/15 03:19:16;;;;;;;8.93;6.28;;;20.60;99.30;;;;;;4983313;28;20189;-89
2022/08/15 03:21:43;;;;;;;9.05;6.30;;;20.50;99.30;;;;;;4997929;28;20187;-90
2022/08/15 03:24:09;;;;;;;6.82;5.80;;;20.50;99.30;;;;;;4997346;28;20230;-88
2022/08/15 03:26:34;;;;;;;9.00;6.47;;;20.50;99.40;;;;;;4997444;28;20685;-89
2022/08/15 03:29:03;;;;;;;6.60;6.00;;;20.60;99.30;;;;;;4997194;28;20273;-88
2022/08/15 03:31:29;;;;;;;6.00;5.40;;;20.60;99.20;;;;;;4997357;28;20186;-88
2022/08/15 03:33:55;;;;;;;6.50;5.90;;;20.60;99.50;;;;;;4997440;28;20183;-86
2022/08/15 03:36:23;;;;;;;9.65;6.18;;;20.60;99.40;;;;;;4999663;28;20241;-88
2022/08/15 03:39:04;;;;;;;8.50;6.22;;;20.60;99.50;;;;;;5018860;28;20182;-87
2022/08/15 03:41:30;;;;;;;7.53;6.63;;;20.50;99.80;;;;;;5001712;28;20187;-91
2022/08/15 03:43:56;;;;;;;8.23;5.95;;;20.40;99.90;;;;;;5019567;28;20537;-94
2022/08/15 03:46:22;;;;;;;8.43;7.07;;;20.30;99.90;;;;;;5001392;28;20186;-90
2022/08/15 03:48:52;;;;;;;7.28;6.57;;;20.30;99.90;;;;;;5000992;28;20245;-88
2022/08/15 03:51:20;;;;;;;7.63;6.80;;;20.20;99.90;;;;;;5000621;28;20187;-87
2022/08/15 03:53:50;;;;;;;13.02;6.97;;;20.20;99.90;;;;;;5000371;28;20190;-89
2022/08/15 03:56:19;;;;;;;8.95;6.40;;;20.20;99.90;;;;;;5001621;28;20680;-87
2022/08/15 03:58:47;;;;;;;6.75;6.13;;;20.30;99.90;;;;;;4965972;28;20181;-87
2022/08/15 04:01:19;;;;;;;7.50;6.20;;;20.30;99.90;;;;;;5004252;28;20634;-88
2022/08/15 04:03:46;;;;;;;13.02;7.82;;;20.40;99.90;;;;;;5006609;28;20565;-88
2022/08/15 04:06:16;;;;;;;7.38;6.45;;;20.40;99.90;;;;;;4994858;28;20649;-87
2022/08/15 04:08:46;;;;;;;7.18;6.47;;;20.30;99.90;;;;;;4988787;28;20187;-88
2022/08/15 04:11:14;;;;;;;9.88;6.63;;;20.30;99.90;;;;;;4998337;28;20278;-88
2022/08/15 04:13:40;;;;;;;10.75;6.07;;;20.20;99.90;;;;;;5010451;28;20175;-87
2022/08/15 04:16:07;;;;;;;7.93;6.07;;;20.20;99.90;;;;;;5000725;28;20286;-89
2022/08/15 04:18:40;;;;;;;7.05;6.35;;;20.20;99.90;;;;;;4997993;28;20187;-89
2022/08/15 04:21:08;;;;;;;7.63;6.35;;;20.20;99.90;;;;;;5018006;28;20669;-88
2022/08/15 04:23:34;;;;;;;7.15;6.05;;;20.20;99.90;;;;;;5000778;28;20222;-89
2022/08/15 04:26:00;;;;;;;7.13;6.15;;;20.20;99.90;;;;;;5001170;28;20213;-88
2022/08/15 04:28:29;;;;;;;7.25;6.55;;;20.10;99.90;;;;;;5000752;28;20202;-88
2022/08/15 04:30:55;;;;;;;7.63;6.72;;;20.10;99.90;;;;;;5001037;28;20187;-87
2022/08/15 04:33:23;;;;;;;8.45;6.25;;;20.10;99.90;;;;;;5000652;28;20325;-89
2022/08/15 04:35:58;;;;;;;7.13;6.43;;;20.10;99.90;;;;;;4996767;28;20259;-89
2022/08/15 04:38:24;;;;;;;7.10;6.00;;;20.10;99.90;;;;;;4997183;28;20192;-87
2022/08/15 04:40:50;;;;;;;8.93;6.68;;;20.10;99.90;;;;;;4997411;28;20199;-89
2022/08/15 04:43:18;;;;;;;8.10;7.20;;;20.10;99.90;;;;;;4997187;28;20183;-91
2022/08/15 04:45:44;;;;;;;7.45;6.63;;;20.20;99.90;;;;;;4996985;28;20528;-88
2022/08/15 04:48:14;;;;;;;12.20;6.80;;;20.20;99.90;;;;;;4998034;28;20187;-91
2022/08/15 04:50:49;;;;;;;10.05;7.25;;;20.20;99.90;;;;;;4996777;28;20586;-89
2022/08/15 04:53:16;;;;;;;10.45;6.93;;;20.30;99.90;;;;;;4997300;28;20187;-89
2022/08/15 04:55:43;;;;;;;8.48;6.80;;;20.40;99.90;;;;;;4997260;28;20280;-92
2022/08/15 04:58:12;;;;;;;9.38;7.60;;;20.40;99.90;;;;;;4996428;28;20188;-88
2022/08/15 05:01:11;;;;;;;8.75;7.40;;;20.40;99.90;;;;;;4997295;28;20186;-90
2022/08/15 05:03:38;;;;;;;7.80;7.00;;;20.50;99.90;;;;;;4976132;28;20215;-91
2022/08/15 05:06:07;;;;;;;9.30;6.97;;;20.60;99.90;;;;;;4997090;28;20215;-91
2022/08/15 05:08:35;;;;;;;7.75;6.95;;;20.60;99.90;;;;;;4997468;28;20311;-89
2022/08/15 05:11:08;;;;;;;10.10;7.28;;;20.60;99.90;;;;;;4997180;28;20621;-88
2022/08/15 05:13:37;;;;;;;8.13;7.00;;;20.70;99.90;;;;;;4997003;28;20172;-88
2022/08/15 05:16:07;;;;;;;9.93;7.10;;;20.70;99.90;;;;;;4997094;28;20307;-90
2022/08/15 05:18:37;;;;;;;8.20;6.55;;;20.70;99.90;;;;;;4996942;28;20271;-91
2022/08/15 05:21:12;;;;;;;7.28;6.45;;;20.70;99.90;;;;;;4996652;28;20593;-89
2022/08/15 05:23:40;;;;;;;7.63;6.82;;;20.80;99.90;;;;;;4996897;28;20338;-89
2022/08/15 05:26:06;;;;;;;7.25;6.55;;;20.70;99.90;;;;;;4996712;28;20506;-90
2022/08/15 05:28:32;;;;;;;7.90;6.80;;;20.80;99.90;;;;;;4998133;28;20210;-89
2022/08/15 05:31:05;;;;;;;8.95;6.93;;;20.90;99.90;;;;;;4996899;28;20184;-89
2022/08/15 05:33:31;;;;;;;8.25;6.60;;;20.90;99.90;;;;;;4996716;28;20172;-90
2022/08/15 05:36:00;;;;;;;7.70;6.45;;;20.90;99.90;;;;;;4996252;28;20255;-89
2022/08/15 05:38:31;;;;;;;9.75;7.07;;;20.90;99.90;;;;;;4996529;28;20180;-89
2022/08/15 05:41:34;;;;;;;7.15;6.45;;;21.00;99.90;;;;;;4996486;28;20176;-90
2022/08/15 05:44:29;;;;;;;7.63;6.82;;;21.00;99.90;;;;;;4996620;28;20203;-92
2022/08/15 05:47:12;;;;;;;7.95;6.95;;;21.00;99.90;;;;;;4994250;28;20187;-94
2022/08/15 05:49:56;;;;;;;7.22;6.53;;;21.10;99.90;;;;;;4996408;28;20183;-91
2022/08/15 05:52:38;;;;;;;6.97;6.38;;;21.10;99.90;;;;;;4996313;28;20168;-90
2022/08/15 05:55:43;;;;;;;9.27;6.47;;;21.00;99.90;;;;;;4996170;28;20227;-89
2022/08/15 05:58:30;;;;;;;9.65;7.20;;;21.00;99.90;;;;;;4995815;28;20171;-88
2022/08/15 06:01:05;;;;;;;6.90;6.30;;;21.10;99.90;;;;;;4996395;28;20179;-89
2022/08/15 06:03:33;;;;;;;7.95;6.53;;;21.10;99.90;;;;;;4996939;28;20249;-88
2022/08/15 06:06:10;;;;;;;8.05;6.72;;;21.10;99.90;;;;;;4995774;28;20219;-88
2022/08/15 06:08:43;;;;;;;9.02;7.45;;;21.10;99.90;;;;;;4996071;28;20176;-89
2022/08/15 06:11:44;;;;;;;12.30;7.63;;;21.20;99.90;;;;;;4996101;28;20183;-89
2022/08/15 06:14:22;;;;;;;10.45;7.88;;;21.30;99.90;;;;;;4975264;28;20194;-88
2022/08/15 06:16:55;;;;;;;6.97;6.38;;;21.30;99.90;;;;;;4995876;28;20184;-89
2022/08/15 06:19:28;;;;;;;7.70;6.93;;;21.30;99.90;;;;;;4995847;28;20208;-90
2022/08/15 06:22:33;;;;;;;8.77;6.90;;;21.30;99.90;;;;;;4995583;28;20179;-89
2022/08/15 06:25:49;;;;;;;7.47;6.43;;;21.40;99.90;;;;;;4995821;28;20222;-88
2022/08/15 06:28:33;;;;;;;9.02;6.70;;;21.40;99.90;;;;;;4995703;28;20183;-88
2022/08/15 06:31:26;;;;;;;7.57;6.88;;;21.50;99.90;;;;;;4995806;28;20217;-87
2022/08/15 06:34:10;;;;;;;8.07;7.03;;;21.60;99.90;;;;;;4995054;28;20199;-90
2022/08/15 06:37:06;;;;;;;10.85;7.47;;;21.60;99.90;;;;;;4994923;28;20626;-88
2022/08/15 06:39:56;;;;;;;11.35;7.22;;;21.70;99.90;;;;;;4993557;28;20219;-90
2022/08/15 06:42:34;;;;;;;7.55;6.82;;;21.80;99.90;;;;;;4995416;28;20215;-88
2022/08/15 06:45:05;;;;;;;10.52;6.80;;;21.90;99.90;;;;;;4996041;28;20271;-89
2022/08/15 06:47:31;;;;;;;8.43;7.53;;;22.00;99.90;;;;;;4996265;28;20182;-89
2022/08/15 06:50:03;;;;;;;7.82;6.82;;;22.00;99.90;;;;;;4995441;28;20223;-92
2022/08/15 06:52:33;;;;;;;11.88;7.00;;;22.10;99.90;;;;;;4995114;28;20214;-88
2022/08/15 06:54:59;;;;;;;9.25;7.55;;;22.10;99.90;;;;;;4994629;28;20188;-88
2022/08/15 06:57:37;;;;;;;7.25;6.55;;;22.20;99.90;;;;;;4994862;28;20172;-88
2022/08/15 07:00:31;;;;;;;14.52;8.80;;;22.30;99.90;;;;;;5001570;28;20182;-94
2022/08/15 07:03:19;;;;;;;7.80;7.00;;;22.40;99.90;;;;;;4998227;28;20546;-94
2022/08/15 07:05:54;;;;;;;8.43;6.50;;;22.40;99.90;;;;;;4995540;28;20242;-93
2022/08/15 07:08:44;;;;;;;9.73;6.78;;;22.60;99.90;;;;;;4995053;28;20179;-92
2022/08/15 07:11:37;;;;;;;10.85;7.05;;;22.80;99.90;;;;;;4994943;28;20262;-94
2022/08/15 07:14:17;;;;;;;8.90;7.47;;;22.90;99.90;;;;;;4995285;28;20180;-91
2022/08/15 07:16:46;;;;;;;9.82;6.70;;;23.20;99.90;;;;;;4995192;28;20214;-95
2022/08/15 07:19:12;;;;;;;10.27;7.15;;;23.40;99.90;;;;;;4996008;28;20180;-94
2022/08/15 07:21:43;;;;;;;9.77;7.28;;;23.60;99.90;;;;;;4994162;28;20184;-88
2022/08/15 07:24:10;;;;;;;8.15;7.32;;;23.70;99.60;;;;;;4994673;28;20210;-90
2022/08/15 07:27:01;;;;;;;12.82;7.10;;;23.90;99.40;;;;;;4994486;28;20204;-87
2022/08/15 07:29:36;;;;;;;8.23;6.93;;;24.10;98.50;;;;;;4987530;28;20282;-89
2022/08/15 07:32:28;;;;;;;9.57;6.80;;;24.30;98.60;;;;;;4994717;28;20171;-88
2022/08/15 07:34:58;;;;;;;9.73;7.43;;;24.40;97.70;;;;;;4994702;28;20172;-89
2022/08/15 07:37:29;;;;;;;7.18;6.45;;;24.70;97.30;;;;;;4994434;28;20682;-91
2022/08/15 07:40:03;;;;;;;11.32;7.05;;;24.90;97.10;;;;;;4994692;28;20198;-87
2022/08/15 07:42:45;;;;;;;7.50;6.80;;;25.00;96.30;;;;;;4995849;28;20160;-90
2022/08/15 07:45:33;;;;;;;7.05;6.35;;;25.20;96.20;;;;;;4995648;28;20214;-87
2022/08/15 07:48:03;;;;;;;7.13;6.35;;;25.40;95.90;;;;;;4989094;28;20180;-88
2022/08/15 07:50:42;;;;;;;13.85;7.15;;;25.50;95.70;;;;;;4994053;28;20307;-89
2022/08/15 07:53:21;;;;;;;7.57;6.63;;;25.60;94.80;;;;;;4993008;28;20171;-85
2022/08/15 07:56:05;;;;;;;6.47;5.78;;;25.80;95.10;;;;;;4995200;28;20176;-87
2022/08/15 07:58:33;;;;;;;6.93;6.22;;;26.00;94.50;;;;;;4994127;28;20191;-85
2022/08/15 08:01:23;;;;;;;8.93;7.20;;;26.10;94.50;;;;;;4994170;28;20266;-86
2022/08/15 08:04:15;;;;;;;11.68;6.88;;;26.20;94.90;;;;;;4993994;28;20250;-85
2022/08/15 08:06:55;;;;;;;7.22;6.43;;;26.40;94.10;;;;;;4989595;28;20595;-86
2022/08/15 08:09:33;;;;;;;9.25;6.60;;;26.50;94.40;;;;;;4993997;28;20203;-87
2022/08/15 08:12:10;;;;;;;8.55;6.80;;;26.60;95.20;;;;;;4993757;28;20209;-85
2022/08/15 08:14:42;;;;;;;8.60;6.85;;;26.70;95.00;;;;;;4993710;28;20179;-83
2022/08/15 08:17:37;;;;;;;9.60;7.70;;;26.90;94.60;;;;;;4993437;28;20540;-86
2022/08/15 08:20:18;;;;;;;9.23;7.15;;;26.90;94.50;;;;;;4991795;28;20188;-87
2022/08/15 08:22:55;;;;;;;7.60;6.70;;;27.00;94.00;;;;;;4997797;28;20168;-85
2022/08/15 08:25:35;;;;;;;7.63;6.50;;;27.10;94.10;;;;;;4997553;28;20298;-85
2022/08/15 08:28:38;;;;;;;11.95;6.72;;;27.20;93.90;;;;;;4997365;28;20632;-87
2022/08/15 08:31:34;;;;;;;9.18;6.88;;;27.30;94.20;;;;;;4997808;28;20266;-87
2022/08/15 08:34:23;;;;;;;7.88;6.53;;;27.50;93.50;;;;;;4997345;28;20626;-87
2022/08/15 08:36:55;;;;;;;10.98;6.28;;;27.60;93.30;;;;;;4996685;28;20694;-83
2022/08/15 08:39:26;;;;;;;6.47;5.88;;;27.70;93.00;;;;;;4997007;28;20638;-85
2022/08/15 08:42:29;;;;;;;7.05;5.97;;;27.80;93.10;;;;;;4998121;28;20172;-87
2022/08/15 08:45:31;;;;;;;9.68;6.55;;;27.90;92.80;;;;;;4997140;28;20634;-86
2022/08/15 08:48:15;;;;;;;7.38;6.50;;;28.00;92.80;;;;;;4998035;28;20214;-87
2022/08/15 08:50:53;;;;;;;17.10;6.80;;;28.10;92.90;;;;;;4997834;28;20159;-85
2022/08/15 08:53:28;;;;;;;8.77;6.57;;;28.20;91.80;;;;;;4997926;28;20255;-86
2022/08/15 08:56:08;;;;;;;6.43;5.85;;;28.30;91.80;;;;;;4996984;28;20178;-87
2022/08/15 08:58:40;;;;;;;7.70;6.90;;;28.40;92.50;;;;;;4996964;28;20510;-85
2022/08/15 09:01:09;;;;;;;11.13;6.68;;;28.40;91.60;;;;;;4996629;28;20557;-86
2022/08/15 09:03:46;;;;;;;8.63;6.22;;;28.50;91.60;;;;;;4997755;28;20179;-86
2022/08/15 09:06:21;;;;;;;8.63;5.80;;;28.60;91.30;;;;;;4996552;28;20191;-85
2022/08/15 09:08:52;;;;;;;9.07;6.80;;;28.70;90.80;;;;;;4969230;28;20195;-88
2022/08/15 09:11:34;;;;;;;11.05;6.43;;;28.70;90.30;;;;;;4958916;28;20172;-85
2022/08/15 09:14:34;;;;;;;9.85;6.30;;;28.90;90.70;;;;;;4957746;28;20211;-85
2022/08/15 09:17:10;;;;;;;9.05;5.90;;;28.90;90.10;;;;;;4953063;29;20590;-82
2022/08/15 09:19:46;;;;;;;7.60;6.80;;;29.00;90.30;;;;;;4957472;29;20267;-89
2022/08/15 09:22:15;;;;;;;6.65;6.00;;;29.10;90.10;;;;;;4957674;28;20220;-84
2022/08/15 09:24:41;;;;;;;9.82;6.85;;;29.20;90.00;;;;;;4958308;28;20293;-86
2022/08/15 09:27:12;;;;;;;7.50;6.00;;;29.20;89.00;;;;;;4957146;28;20589;-84
2022/08/15 09:29:46;;;;;;;8.40;6.50;;;29.20;89.10;;;;;;4957696;28;20593;-86
2022/08/15 09:32:28;;;;;;;9.07;5.90;;;29.40;88.50;;;;;;4957136;28;20176;-86
2022/08/15 09:35:25;;;;;;;8.35;6.22;;;29.50;88.50;;;;;;4957055;29;20228;-86
2022/08/15 09:38:09;;;;;;;8.32;5.72;;;29.50;86.80;;;;;;4956792;28;20647;-85
2022/08/15 09:40:55;;;;;;;6.57;5.43;;;29.50;87.10;;;;;;4957839;28;20184;-84
2022/08/15 09:43:30;;;;;;;11.40;6.10;;;29.60;87.00;;;;;;4957195;28;20173;-91
2022/08/15 09:46:09;;;;;;;6.95;5.93;;;29.70;86.30;;;;;;4957205;29;20227;-85
2022/08/15 09:48:45;;;;;;;9.15;6.07;;;29.80;87.60;;;;;;4958298;29;20551;-87
2022/08/15 09:51:22;;;;;;;6.43;5.82;;;29.90;85.20;;;;;;4956895;28;20600;-85
2022/08/15 09:54:23;;;;;;;7.82;6.43;;;30.00;86.30;;;;;;4956646;28;20213;-87
2022/08/15 09:57:09;;;;;;;10.07;5.80;;;30.00;85.40;;;;;;4957197;29;20255;-88
2022/08/15 09:59:37;;;;;;;11.25;5.88;;;30.10;85.90;;;;;;4957229;29;20208;-87
2022/08/15 10:02:26;;;;;;;7.13;5.78;;;30.20;84.90;;;;;;4956861;29;20181;-83
2022/08/15 10:04:57;;;;;;;10.20;6.00;;;30.40;85.70;;;;;;4956781;28;20315;-87
2022/08/15 10:07:38;;;;;;;8.68;6.30;;;30.50;85.90;;;;;;4990018;28;20237;-85
2022/08/15 10:10:23;;;;;;;6.75;5.63;;;30.50;85.30;;;;;;4996635;28;20163;-85
2022/08/15 10:13:07;;;;;;;6.50;5.65;;;30.60;84.80;;;;;;4995833;28;20182;-86
2022/08/15 10:15:44;;;;;;;11.02;5.90;;;30.70;84.70;;;;;;4996277;28;20167;-88
2022/08/15 10:18:38;;;;;;;6.13;5.47;;;30.80;83.60;;;;;;4996418;28;20175;-86
2022/08/15 10:21:33;;;;;;;5.85;5.25;;;30.80;83.30;;;;;;4952069;28;20190;-87
2022/08/15 10:23:59;;;;;;;7.00;5.82;;;30.90;82.50;;;;;;4995110;28;20199;-85
2022/08/15 10:26:30;;;;;;;8.60;5.65;;;30.90;81.40;;;;;;4995009;28;20680;-84
2022/08/15 10:29:00;;;;;;;6.90;6.20;;;31.00;82.30;;;;;;4994680;28;20609;-83
2022/08/15 10:31:50;;;;;;;6.22;5.63;;;30.90;80.70;;;;;;4995986;28;20714;-84
2022/08/15 10:34:35;;;;;;;8.20;5.57;;;30.90;82.20;;;;;;4994574;28;20258;-86
2022/08/15 10:37:28;;;;;;;5.70;5.10;;;30.90;81.90;;;;;;4994275;28;20231;-83
2022/08/15 10:40:06;;;;;;;8.43;5.25;;;31.00;81.60;;;;;;4994613;28;20175;-86
2022/08/15 10:42:54;;;;;;;7.50;5.43;;;31.10;79.10;;;;;;4995928;28;20588;-84
2022/08/15 10:45:46;;;;;;;5.80;5.18;;;31.10;78.60;;;;;;4994191;28;20211;-85
2022/08/15 10:48:49;;;;;;;6.90;5.55;;;31.20;80.80;;;;;;4994362;28;20167;-84
2022/08/15 10:51:43;;;;;;;10.38;5.45;;;31.30;80.70;;;;;;4995713;28;20214;-83
2022/08/15 10:54:41;;;;;;;6.85;5.35;;;31.10;79.60;;;;;;4994356;28;20175;-85
2022/08/15 10:57:09;;;;;;;11.07;5.45;;;31.10;80.30;;;;;;4994408;28;20172;-84
2022/08/15 10:59:37;;;;;;;7.38;5.63;;;30.70;80.80;;;;;;4994364;28;20187;-85
2022/08/15 11:02:13;;;;;;;7.55;5.50;;;30.40;80.80;;;;;;4994641;28;20179;-85
2022/08/15 11:04:42;;;;;;;6.57;5.53;;;30.00;80.70;;;;;;4994305;28;20207;-84
2022/08/15 11:07:33;;;;;;;10.70;5.50;;;29.90;82.50;;;;;;4993849;28;20255;-84
2022/08/15 11:10:02;;;;;;;7.00;5.28;;;29.70;83.50;;;;;;4995156;28;20710;-83
2022/08/15 11:12:32;;;;;;;8.65;5.40;;;29.60;82.10;;;;;;4994122;28;20282;-86
2022/08/15 11:15:04;;;;;;;5.80;4.70;;;29.40;82.30;;;;;;4994118;28;20175;-84
2022/08/15 11:17:32;;;;;;;5.20;4.70;;;29.40;83.70;;;;;;4993988;28;20168;-83
2022/08/15 11:20:27;;;;;;;5.68;5.13;;;29.30;82.90;;;;;;4993823;28;20187;-86
2022/08/15 11:22:58;;;;;;;7.43;5.00;;;29.20;82.90;;;;;;4992415;28;20231;-84
2022/08/15 11:25:28;;;;;;;7.72;5.43;;;29.10;82.80;;;;;;4993700;28;20268;-83
2022/08/15 11:28:20;;;;;;;6.18;4.57;;;29.10;83.10;;;;;;4994097;28;20199;-84
2022/08/15 11:30:47;;;;;;;5.15;4.65;;;29.00;81.70;;;;;;4993546;28;20180;-84
2022/08/15 11:33:22;;;;;;;6.97;4.80;;;29.00;82.20;;;;;;4993813;28;20167;-84
2022/08/15 11:35:49;;;;;;;4.97;4.55;;;29.10;82.70;;;;;;5001061;28;20230;-84
2022/08/15 11:38:16;;;;;;;6.28;5.00;;;29.20;81.40;;;;;;5014243;28;20197;-84
2022/08/15 11:40:48;;;;;;;5.85;5.07;;;29.50;82.40;;;;;;4997036;28;20232;-84
2022/08/15 11:43:17;;;;;;;6.18;4.75;;;29.70;81.60;;;;;;4997200;28;20174;-85
2022/08/15 11:45:50;;;;;;;5.55;4.32;;;29.80;80.30;;;;;;5014612;28;20214;-86
2022/08/15 11:48:36;;;;;;;5.85;4.32;;;29.70;79.80;;;;;;4997262;28;20175;-87
2022/08/15 11:51:06;;;;;;;5.10;4.47;;;29.60;81.40;;;;;;4975291;28;20176;-86
2022/08/15 11:54:12;;;;;;;6.82;4.57;;;29.50;78.80;;;;;;4975888;28;20187;-85
2022/08/15 11:56:45;;;;;;;5.85;4.93;;;29.30;80.50;;;;;;4975356;28;20191;-85
2022/08/15 11:59:25;;;;;;;6.32;4.53;;;29.20;81.20;;;;;;4967838;28;20199;-83
2022/08/15 12:02:27;;;;;;;5.60;3.92;;;29.10;79.90;;;;;;4961838;28;20198;-85
2022/08/15 12:04:54;;;;;;;5.63;4.70;;;29.10;80.60;;;;;;4961956;28;20736;-84
2022/08/15 12:07:23;;;;;;;8.85;4.90;;;29.00;80.30;;;;;;4994795;28;20572;-86
2022/08/15 12:10:02;;;;;;;5.55;4.85;;;29.00;81.10;;;;;;5018246;28;20249;-84
2022/08/15 12:12:28;;;;;;;6.40;4.65;;;28.90;80.70;;;;;;5000634;28;20167;-85
2022/08/15 12:15:14;;;;;;;5.28;4.78;;;28.90;82.20;;;;;;5000929;28;20198;-86
2022/08/15 12:17:45;;;;;;;5.57;4.50;;;28.80;82.30;;;;;;5000957;28;20173;-87
2022/08/15 12:20:11;;;;;;;5.38;4.82;;;28.70;82.90;;;;;;5000255;28;20179;-84
2022/08/15 12:22:40;;;;;;;8.10;5.10;;;28.70;83.50;;;;;;4999641;28;20209;-82
2022/08/15 12:25:08;;;;;;;8.70;4.68;;;28.60;82.90;;;;;;5000033;28;20284;-84
2022/08/15 12:27:35;;;;;;;6.15;4.55;;;28.60;83.20;;;;;;5018032;28;20509;-91
2022/08/15 12:30:07;;;;;;;17.02;6.78;;;28.50;86.30;;;;;;5000796;28;20237;-89
2022/08/15 12:32:33;;;;;;;10.35;5.75;;;28.30;92.30;;;;;;5000926;28;20174;-90
2022/08/15 12:34:59;;;;;;;9.68;5.88;;;27.80;94.20;;;;;;5000207;28;20527;-90
2022/08/15 12:37:26;;;;;;;7.57;5.93;;;27.20;95.10;;;;;;4996767;28;20238;-89
2022/08/15 12:39:55;;;;;;;6.88;5.60;;;26.60;96.50;;;;;;4997131;28;20199;-90
2022/08/15 12:42:30;;;;;;;7.13;6.05;;;26.20;97.80;;;;;;4997309;28;20184;-91
2022/08/15 12:45:02;;;;;;;8.13;6.10;;;25.90;99.90;;;;;;4997286;28;20217;-91
2022/08/15 12:47:31;;;;;;;6.65;5.95;;;25.80;99.90;;;;;;4997353;28;20226;-91
2022/08/15 12:49:58;;;;;;;6.45;5.35;;;25.70;99.90;;;;;;4997491;28;20266;-93
2022/08/15 12:52:24;;;;;;;9.30;6.50;;;25.80;99.90;;;;;;4997263;28;20176;-90
2022/08/15 12:54:58;;;;;;;7.28;6.57;;;25.90;99.90;;;;;;4997507;28;20176;-92
2022/08/15 12:57:28;;;;;;;8.73;7.00;;;26.10;99.90;;;;;;4997455;28;20171;-92
2022/08/15 12:59:54;;;;;;;8.25;6.63;;;26.20;99.90;;;;;;4997660;28;20180;-94
2022/08/15 13:02:20;;;;;;;6.78;5.88;;;26.30;99.90;;;;;;4997444;28;20183;-93
2022/08/15 13:04:51;;;;;;;7.90;6.20;;;26.30;99.90;;;;;;4997610;28;20216;-88
2022/08/15 13:07:18;;;;;;;12.43;6.70;;;26.30;99.90;;;;;;4996668;28;20180;-90
2022/08/15 13:09:45;;;;;;;16.08;7.93;;;26.30;99.90;;;;;;4997187;28;20188;-87
2022/08/15 13:12:13;;;;;;;12.35;7.25;;;26.20;99.90;;;;;;4997462;28;20183;-93
2022/08/15 13:14:39;;;;;;;11.15;7.40;;;26.00;99.90;;;;;;4999998;28;20180;-92
2022/08/15 13:17:06;;;;;;;11.25;7.03;;;26.00;99.90;;;;;;4998423;28;20168;-92
2022/08/15 13:25:22;;;;;;;10.65;7.72;;;25.60;99.90;;;;;;4997876;28;20273;-91
2022/08/15 13:27:49;;;;;;;8.15;7.22;;;25.50;99.90;;;;;;5001530;28;20177;-88
2022/08/15 13:30:16;;;;;;;7.43;6.53;;;25.70;99.90;;;;;;5000224;28;20179;-88
2022/08/15 13:32:42;;;;;;;9.50;7.22;;;26.00;99.90;;;;;;4997056;28;20175;-92
2022/08/15 13:35:11;;;;;;;9.27;7.38;;;26.20;99.90;;;;;;4997711;28;20168;-87